This is the latest recevied weather packets stored in our database for station/object DB0DUS-10. If no packets are shown the sender has not sent any weather packets the latest 10 day(s).
| Time | Temp. | Humidity | Pressure | Rain* | Wind** | Luminosity | Snow |
|---|---|---|---|---|---|---|---|
| 1777892884 | 21.67° C | 52% | 1013.6 hPa | 0 mm | - | - | - |
| 1777891084 | 22.22° C | 51% | 1013.7 hPa | 0 mm | - | - | - |
| 1777889586 | 22.78° C | 50% | 1013.8 hPa | 0 mm | - | - | - |
| 1777889284 | 23.33° C | 48% | 1013.6 hPa | 0 mm | - | - | - |
| 1777888085 | 22.78° C | 49% | 1013.8 hPa | 0 mm | - | - | - |
| 1777887484 | 22.78° C | 48% | 1013.8 hPa | 0 mm | - | - | - |
| 1777886585 | 23.33° C | 49% | 1013.8 hPa | 0 mm | - | - | - |
| 1777885684 | 22.22° C | 52% | 1013.8 hPa | 0 mm | - | - | - |
| 1777885085 | 23.33° C | 48% | 1013.8 hPa | 0 mm | - | - | - |
| 1777883884 | 22.78° C | 51% | 1013.7 hPa | 0 mm | - | - | - |
| 1777883585 | 22.22° C | 50% | 1013.7 hPa | 0 mm | - | - | - |
| 1777882084 | 22.78° C | 50% | 1013.6 hPa | 0 mm | - | - | - |
| 1777880585 | 21.11° C | 53% | 1013.6 hPa | 0 mm | - | - | - |
| 1777880284 | 21.11° C | 53% | 1013.6 hPa | 0 mm | - | - | - |
| 1777879085 | 20° C | 59% | 1013.5 hPa | 0 mm | - | - | - |
| 1777878484 | 18.89° C | 62% | 1013.4 hPa | 0 mm | - | - | - |
| 1777877585 | 17.22° C | 68% | 1013.4 hPa | 0 mm | - | - | - |
| 1777876684 | 16.11° C | 70% | 1013.4 hPa | 0 mm | - | - | - |
| 1777876085 | 16.11° C | 71% | 1013.4 hPa | 0 mm | - | - | - |
| 1777874884 | 16.11° C | 71% | 1013.1 hPa | 0 mm | - | - | - |
| 1777874585 | 16.11° C | 70% | 1012.8 hPa | 0 mm | - | - | - |
| 1777873084 | 14.44° C | 77% | 1013 hPa | 0 mm | - | - | - |
| 1777871585 | 14.44° C | 77% | 1012.8 hPa | 0 mm | - | - | - |
| 1777871284 | 14.44° C | 78% | 1012.8 hPa | 0 mm | - | - | - |
| 1777870085 | 13.89° C | 79% | 1012.7 hPa | 0 mm | - | - | - |
* Rain latest hour (hover to see other rain measurements)
** Current wind speed in m/s (hover to see current wind gust speed)